San Diego, CA (92145)

8:17 AM PDT on July 24, 2016 (GMT -0700)
Residential | | Change Station

Elev 407 ft 32.90 °N, 117.16 °W | Updated 26 minutes ago

Overcast
Overcast
67.8 °F
Feels Like 67.8 °F
N
0.0
Wind Variable Wind from West

Today
High -- | Low -- °F
--% Chance of Precip.
Yesterday
High -- | Low -- °F
Precip. -- in
Pressure 29.89 in
Visibility 4.0 miles
Clouds Overcast 500 ft
Dew Point 65 °F
Humidity 91%
Rainfall 0.00 in
Snow Depth Not available.
5:57 AM 7:52 PM
Waning Gibbous, 75% visible
METAR KNKX 241455Z 00000KT 4SM BR OVC005 20/18 A2990 RMK AO2 SLP121 T02000183 53024
Pressure 29.89 in
Visibility 4.0 miles
Clouds Overcast 500 ft
Dew Point 65 °F
Humidity 91%
Rainfall 0.00 in
Snow Depth Not available.
5:57 AM 7:52 PM
Waning Gibbous, 75% visible
METAR KNKX 241455Z 00000KT 4SM BR OVC005 20/18 A2990 RMK AO2 SLP121 T02000183 53024

10-Day Weather Forecast

Almanac

Astronomy

Jul. 24, 2016 Rise Set
Actual Time
Civil Twilight
Nautical Twilight
Astronomical Twilight
Moon
Length of Visible Light
Length of Day
Tomorrow will be .
, % of the Moon is Illuminated

Today's Extremes

State Highs State Lows

Community

WunderPhotos

Upload Photos

1,927,076 photos uploaded!

WunderBlog® & News

Nearby

Air Quality

  Air Quality AQ Index Pollutant
Not available.

Snow Depth

Station Depth Elevation

Earthquake Activity

City Distance Mag. Time & Date
Minimum magnitude displayed is 2.5.

Coastal Water Temperatures

Place Temperature

Stations

Nearby Weather Stations

Station Location Temp. Windchill Dew Point Humidity Wind Precip. Elev Updated Type
                   

Watches & Warnings

There are currently no watches in effect.